sensor_id;sensor_type;location;lat;lon;timestamp;P1;durP1;ratioP1;P2;durP2;ratioP2
40453;SDS011;26160;51.858;4.398;2022-11-04T00:01:22;5.13;;;1.02;;
40453;SDS011;26160;51.858;4.398;2022-11-04T00:03:48;4.45;;;0.88;;
40453;SDS011;26160;51.858;4.398;2022-11-04T00:06:14;5.78;;;1.38;;
40453;SDS011;26160;51.858;4.398;2022-11-04T00:08:41;1.45;;;0.70;;
40453;SDS011;26160;51.858;4.398;2022-11-04T00:11:08;4.10;;;0.80;;
40453;SDS011;26160;51.858;4.398;2022-11-04T00:13:53;1.58;;;0.52;;
40453;SDS011;26160;51.858;4.398;2022-11-04T00:16:19;2.70;;;0.70;;
40453;SDS011;26160;51.858;4.398;2022-11-04T00:19:06;5.70;;;0.70;;
40453;SDS011;26160;51.858;4.398;2022-11-04T00:21:32;3.35;;;0.80;;
40453;SDS011;26160;51.858;4.398;2022-11-04T00:24:17;5.97;;;1.17;;
40453;SDS011;26160;51.858;4.398;2022-11-04T00:27:01;3.13;;;0.50;;
40453;SDS011;26160;51.858;4.398;2022-11-04T00:29:46;1.83;;;0.60;;
40453;SDS011;26160;51.858;4.398;2022-11-04T00:32:12;3.13;;;0.77;;
40453;SDS011;26160;51.858;4.398;2022-11-04T00:34:57;3.70;;;0.60;;
40453;SDS011;26160;51.858;4.398;2022-11-04T00:37:23;1.30;;;0.87;;
40453;SDS011;26160;51.858;4.398;2022-11-04T00:39:49;1.40;;;0.20;;
40453;SDS011;26160;51.858;4.398;2022-11-04T00:42:15;1.80;;;0.30;;
40453;SDS011;26160;51.858;4.398;2022-11-04T00:44:42;1.80;;;0.27;;
40453;SDS011;26160;51.858;4.398;2022-11-04T00:47:08;0.47;;;0.27;;
40453;SDS011;26160;51.858;4.398;2022-11-04T00:49:34;1.17;;;0.30;;
40453;SDS011;26160;51.858;4.398;2022-11-04T00:52:00;2.83;;;0.20;;
40453;SDS011;26160;51.858;4.398;2022-11-04T00:54:26;0.80;;;0.80;;
40453;SDS011;26160;51.858;4.398;2022-11-04T00:56:52;3.73;;;0.70;;
40453;SDS011;26160;51.858;4.398;2022-11-04T00:59:18;1.27;;;0.50;;
40453;SDS011;26160;51.858;4.398;2022-11-04T01:01:44;1.63;;;0.33;;
40453;SDS011;26160;51.858;4.398;2022-11-04T01:04:11;1.37;;;0.30;;
40453;SDS011;26160;51.858;4.398;2022-11-04T01:06:37;2.70;;;0.47;;
40453;SDS011;26160;51.858;4.398;2022-11-04T01:09:05;3.40;;;0.60;;
40453;SDS011;26160;51.858;4.398;2022-11-04T01:11:35;1.73;;;0.30;;
40453;SDS011;26160;51.858;4.398;2022-11-04T01:14:01;1.57;;;0.50;;
40453;SDS011;26160;51.858;4.398;2022-11-04T01:16:28;2.37;;;0.60;;
40453;SDS011;26160;51.858;4.398;2022-11-04T01:18:54;1.03;;;0.40;;
40453;SDS011;26160;51.858;4.398;2022-11-04T01:21:21;3.60;;;0.40;;
40453;SDS011;26160;51.858;4.398;2022-11-04T01:23:47;3.10;;;0.50;;
40453;SDS011;26160;51.858;4.398;2022-11-04T01:26:14;5.23;;;1.07;;
40453;SDS011;26160;51.858;4.398;2022-11-04T01:28:42;1.93;;;0.50;;
40453;SDS011;26160;51.858;4.398;2022-11-04T01:31:09;2.17;;;1.10;;
40453;SDS011;26160;51.858;4.398;2022-11-04T01:33:37;4.97;;;0.97;;
40453;SDS011;26160;51.858;4.398;2022-11-04T01:36:04;5.40;;;1.80;;
40453;SDS011;26160;51.858;4.398;2022-11-04T01:38:32;6.93;;;2.37;;
40453;SDS011;26160;51.858;4.398;2022-11-04T01:40:58;4.13;;;2.60;;
40453;SDS011;26160;51.858;4.398;2022-11-04T01:48:55;6.47;;;4.03;;
40453;SDS011;26160;51.858;4.398;2022-11-04T01:51:26;7.27;;;5.17;;
40453;SDS011;26160;51.858;4.398;2022-11-04T01:53:54;12.97;;;6.50;;
40453;SDS011;26160;51.858;4.398;2022-11-04T01:56:21;9.80;;;7.60;;
40453;SDS011;26160;51.858;4.398;2022-11-04T01:58:51;15.10;;;9.13;;
40453;SDS011;26160;51.858;4.398;2022-11-04T02:04:26;16.07;;;10.90;;
40453;SDS011;26160;51.858;4.398;2022-11-04T02:06:53;20.67;;;13.43;;
40453;SDS011;26160;51.858;4.398;2022-11-04T02:11:52;23.20;;;14.53;;
40453;SDS011;26160;51.858;4.398;2022-11-04T02:14:37;18.37;;;13.93;;
40453;SDS011;26160;51.858;4.398;2022-11-04T02:17:16;20.17;;;14.00;;
40453;SDS011;26160;51.858;4.398;2022-11-04T02:26:15;27.53;;;16.67;;
40453;SDS011;26160;51.858;4.398;2022-11-04T02:31:19;28.83;;;16.80;;
40453;SDS011;26160;51.858;4.398;2022-11-04T02:39:34;23.77;;;16.67;;
40453;SDS011;26160;51.858;4.398;2022-11-04T02:47:49;21.07;;;15.27;;
40453;SDS011;26160;51.858;4.398;2022-11-04T02:50:28;19.00;;;13.33;;
40453;SDS011;26160;51.858;4.398;2022-11-04T02:55:44;25.53;;;14.13;;
40453;SDS011;26160;51.858;4.398;2022-11-04T02:58:18;36.23;;;18.33;;
40453;SDS011;26160;51.858;4.398;2022-11-04T03:00:48;23.50;;;14.07;;
40453;SDS011;26160;51.858;4.398;2022-11-04T03:03:18;24.43;;;13.70;;
40453;SDS011;26160;51.858;4.398;2022-11-04T03:05:49;23.33;;;12.75;;
40453;SDS011;26160;51.858;4.398;2022-11-04T03:08:29;18.03;;;10.80;;
40453;SDS011;26160;51.858;4.398;2022-11-04T03:11:18;20.17;;;10.93;;
40453;SDS011;26160;51.858;4.398;2022-11-04T03:16:26;21.13;;;11.43;;
40453;SDS011;26160;51.858;4.398;2022-11-04T03:21:58;17.53;;;10.23;;
40453;SDS011;26160;51.858;4.398;2022-11-04T03:24:33;15.90;;;9.40;;
40453;SDS011;26160;51.858;4.398;2022-11-04T03:27:00;17.87;;;10.50;;
40453;SDS011;26160;51.858;4.398;2022-11-04T03:32:07;14.23;;;8.27;;
40453;SDS011;26160;51.858;4.398;2022-11-04T03:34:39;18.53;;;9.20;;
40453;SDS011;26160;51.858;4.398;2022-11-04T03:37:06;17.13;;;10.27;;
40453;SDS011;26160;51.858;4.398;2022-11-04T03:39:32;15.17;;;7.87;;
40453;SDS011;26160;51.858;4.398;2022-11-04T03:41:59;13.97;;;8.27;;
40453;SDS011;26160;51.858;4.398;2022-11-04T03:45:05;24.07;;;8.33;;
40453;SDS011;26160;51.858;4.398;2022-11-04T03:47:31;20.10;;;7.63;;
40453;SDS011;26160;51.858;4.398;2022-11-04T03:50:06;20.60;;;9.17;;
40453;SDS011;26160;51.858;4.398;2022-11-04T03:52:36;17.70;;;8.07;;
40453;SDS011;26160;51.858;4.398;2022-11-04T03:55:03;14.90;;;7.57;;
40453;SDS011;26160;51.858;4.398;2022-11-04T04:05:34;14.93;;;7.93;;
40453;SDS011;26160;51.858;4.398;2022-11-04T04:08:19;20.93;;;8.60;;
40453;SDS011;26160;51.858;4.398;2022-11-04T04:11:08;14.50;;;6.93;;
40453;SDS011;26160;51.858;4.398;2022-11-04T04:16:21;15.40;;;6.95;;
40453;SDS011;26160;51.858;4.398;2022-11-04T04:18:55;17.33;;;7.10;;
40453;SDS011;26160;51.858;4.398;2022-11-04T04:21:27;19.60;;;6.33;;
40453;SDS011;26160;51.858;4.398;2022-11-04T04:23:56;17.53;;;8.20;;
40453;SDS011;26160;51.858;4.398;2022-11-04T04:26:42;13.07;;;7.33;;
40453;SDS011;26160;51.858;4.398;2022-11-04T04:29:29;15.50;;;6.80;;
40453;SDS011;26160;51.858;4.398;2022-11-04T04:31:56;16.07;;;7.10;;
40453;SDS011;26160;51.858;4.398;2022-11-04T04:34:27;17.03;;;7.53;;
40453;SDS011;26160;51.858;4.398;2022-11-04T04:39:37;14.00;;;6.50;;
40453;SDS011;26160;51.858;4.398;2022-11-04T04:42:34;17.10;;;6.70;;
40453;SDS011;26160;51.858;4.398;2022-11-04T04:45:26;16.27;;;6.57;;
40453;SDS011;26160;51.858;4.398;2022-11-04T04:47:57;11.97;;;6.47;;
40453;SDS011;26160;51.858;4.398;2022-11-04T04:50:25;20.37;;;7.97;;
40453;SDS011;26160;51.858;4.398;2022-11-04T04:52:55;14.97;;;6.20;;
40453;SDS011;26160;51.858;4.398;2022-11-04T04:55:23;19.87;;;6.40;;
40453;SDS011;26160;51.858;4.398;2022-11-04T04:57:49;12.73;;;5.83;;
40453;SDS011;26160;51.858;4.398;2022-11-04T05:00:16;17.47;;;6.67;;
40453;SDS011;26160;51.858;4.398;2022-11-04T05:02:44;15.77;;;6.40;;
40453;SDS011;26160;51.858;4.398;2022-11-04T05:05:11;15.57;;;7.57;;
40453;SDS011;26160;51.858;4.398;2022-11-04T05:07:40;9.80;;;5.63;;
40453;SDS011;26160;51.858;4.398;2022-11-04T05:10:07;13.57;;;6.47;;
40453;SDS011;26160;51.858;4.398;2022-11-04T05:12:35;15.37;;;7.43;;
40453;SDS011;26160;51.858;4.398;2022-11-04T05:15:21;13.17;;;6.50;;
40453;SDS011;26160;51.858;4.398;2022-11-04T05:17:52;15.63;;;6.73;;
40453;SDS011;26160;51.858;4.398;2022-11-04T05:20:22;8.73;;;5.77;;
40453;SDS011;26160;51.858;4.398;2022-11-04T05:22:49;11.57;;;6.70;;
40453;SDS011;26160;51.858;4.398;2022-11-04T05:25:15;15.27;;;6.80;;
40453;SDS011;26160;51.858;4.398;2022-11-04T05:27:41;18.23;;;7.63;;
40453;SDS011;26160;51.858;4.398;2022-11-04T05:30:07;10.63;;;5.57;;
40453;SDS011;26160;51.858;4.398;2022-11-04T05:32:34;16.10;;;7.10;;
40453;SDS011;26160;51.858;4.398;2022-11-04T05:35:00;10.40;;;5.53;;
40453;SDS011;26160;51.858;4.398;2022-11-04T05:37:26;16.50;;;6.00;;
40453;SDS011;26160;51.858;4.398;2022-11-04T05:39:52;17.47;;;7.03;;
40453;SDS011;26160;51.858;4.398;2022-11-04T05:42:19;11.67;;;6.57;;
40453;SDS011;26160;51.858;4.398;2022-11-04T05:44:45;13.07;;;7.17;;
40453;SDS011;26160;51.858;4.398;2022-11-04T05:47:11;12.37;;;6.43;;
40453;SDS011;26160;51.858;4.398;2022-11-04T05:49:37;13.43;;;5.93;;
40453;SDS011;26160;51.858;4.398;2022-11-04T05:52:04;19.57;;;7.70;;
40453;SDS011;26160;51.858;4.398;2022-11-04T05:54:30;15.57;;;7.43;;
40453;SDS011;26160;51.858;4.398;2022-11-04T05:56:56;14.27;;;5.83;;
40453;SDS011;26160;51.858;4.398;2022-11-04T05:59:22;13.00;;;5.57;;
40453;SDS011;26160;51.858;4.398;2022-11-04T06:01:49;14.90;;;6.43;;
40453;SDS011;26160;51.858;4.398;2022-11-04T06:04:16;15.77;;;6.93;;
40453;SDS011;26160;51.858;4.398;2022-11-04T06:07:01;17.23;;;6.63;;
40453;SDS011;26160;51.858;4.398;2022-11-04T06:09:27;20.43;;;7.23;;
40453;SDS011;26160;51.858;4.398;2022-11-04T06:12:07;17.57;;;8.40;;
40453;SDS011;26160;51.858;4.398;2022-11-04T06:14:35;15.73;;;7.30;;
40453;SDS011;26160;51.858;4.398;2022-11-04T06:17:01;14.37;;;6.10;;
40453;SDS011;26160;51.858;4.398;2022-11-04T06:19:28;14.40;;;6.47;;
40453;SDS011;26160;51.858;4.398;2022-11-04T06:21:54;12.83;;;5.23;;
40453;SDS011;26160;51.858;4.398;2022-11-04T06:24:20;17.70;;;6.87;;
40453;SDS011;26160;51.858;4.398;2022-11-04T06:26:46;12.53;;;5.90;;
40453;SDS011;26160;51.858;4.398;2022-11-04T06:29:12;24.47;;;8.17;;
40453;SDS011;26160;51.858;4.398;2022-11-04T06:31:38;16.30;;;6.93;;
40453;SDS011;26160;51.858;4.398;2022-11-04T06:34:05;16.47;;;6.20;;
40453;SDS011;26160;51.858;4.398;2022-11-04T06:36:31;10.20;;;6.00;;
40453;SDS011;26160;51.858;4.398;2022-11-04T06:38:57;16.20;;;7.30;;
40453;SDS011;26160;51.858;4.398;2022-11-04T06:41:23;17.23;;;7.00;;
40453;SDS011;26160;51.858;4.398;2022-11-04T06:43:49;19.93;;;7.87;;
40453;SDS011;26160;51.858;4.398;2022-11-04T06:49:02;16.30;;;7.53;;
40453;SDS011;26160;51.858;4.398;2022-11-04T06:51:34;17.05;;;7.07;;
40453;SDS011;26160;51.858;4.398;2022-11-04T06:54:00;20.03;;;7.33;;
40453;SDS011;26160;51.858;4.398;2022-11-04T06:59:07;12.97;;;5.10;;
40453;SDS011;26160;51.858;4.398;2022-11-04T07:01:34;15.70;;;7.33;;
40453;SDS011;26160;51.858;4.398;2022-11-04T07:04:04;16.13;;;7.50;;
40453;SDS011;26160;51.858;4.398;2022-11-04T07:06:30;23.10;;;7.60;;
40453;SDS011;26160;51.858;4.398;2022-11-04T07:08:57;18.70;;;7.37;;
40453;SDS011;26160;51.858;4.398;2022-11-04T07:11:25;16.53;;;7.07;;
40453;SDS011;26160;51.858;4.398;2022-11-04T07:13:53;20.40;;;8.23;;
40453;SDS011;26160;51.858;4.398;2022-11-04T07:16:19;20.67;;;7.30;;
40453;SDS011;26160;51.858;4.398;2022-11-04T07:18:46;18.23;;;7.80;;
40453;SDS011;26160;51.858;4.398;2022-11-04T07:21:13;17.30;;;7.40;;
40453;SDS011;26160;51.858;4.398;2022-11-04T07:23:39;18.90;;;7.00;;
40453;SDS011;26160;51.858;4.398;2022-11-04T07:26:07;19.40;;;7.13;;
40453;SDS011;26160;51.858;4.398;2022-11-04T07:28:34;20.20;;;6.87;;
40453;SDS011;26160;51.858;4.398;2022-11-04T07:31:01;21.73;;;6.70;;
40453;SDS011;26160;51.858;4.398;2022-11-04T07:33:29;20.23;;;6.80;;
40453;SDS011;26160;51.858;4.398;2022-11-04T07:35:56;27.43;;;7.50;;
40453;SDS011;26160;51.858;4.398;2022-11-04T07:38:22;20.40;;;6.83;;
40453;SDS011;26160;51.858;4.398;2022-11-04T07:40:48;25.80;;;7.33;;
40453;SDS011;26160;51.858;4.398;2022-11-04T07:43:14;15.97;;;6.87;;
40453;SDS011;26160;51.858;4.398;2022-11-04T07:45:41;18.37;;;6.17;;
40453;SDS011;26160;51.858;4.398;2022-11-04T07:48:07;15.07;;;5.93;;
40453;SDS011;26160;51.858;4.398;2022-11-04T07:50:33;17.50;;;6.37;;
40453;SDS011;26160;51.858;4.398;2022-11-04T07:52:59;16.50;;;6.33;;
40453;SDS011;26160;51.858;4.398;2022-11-04T07:55:25;18.07;;;6.60;;
40453;SDS011;26160;51.858;4.398;2022-11-04T07:57:53;16.97;;;5.50;;
40453;SDS011;26160;51.858;4.398;2022-11-04T08:00:19;15.43;;;5.70;;
40453;SDS011;26160;51.858;4.398;2022-11-04T08:02:45;14.40;;;5.47;;
40453;SDS011;26160;51.858;4.398;2022-11-04T08:05:12;14.93;;;5.90;;
40453;SDS011;26160;51.858;4.398;2022-11-04T08:07:39;17.30;;;6.73;;
40453;SDS011;26160;51.858;4.398;2022-11-04T08:10:05;15.70;;;5.80;;
40453;SDS011;26160;51.858;4.398;2022-11-04T08:12:34;15.13;;;6.07;;
40453;SDS011;26160;51.858;4.398;2022-11-04T08:15:00;18.73;;;7.67;;
40453;SDS011;26160;51.858;4.398;2022-11-04T08:17:26;12.57;;;5.33;;
40453;SDS011;26160;51.858;4.398;2022-11-04T08:19:55;17.47;;;6.37;;
40453;SDS011;26160;51.858;4.398;2022-11-04T08:22:21;16.27;;;6.53;;
40453;SDS011;26160;51.858;4.398;2022-11-04T08:24:47;21.80;;;7.73;;
40453;SDS011;26160;51.858;4.398;2022-11-04T08:27:13;21.10;;;7.90;;
40453;SDS011;26160;51.858;4.398;2022-11-04T08:29:39;21.77;;;8.47;;
40453;SDS011;26160;51.858;4.398;2022-11-04T08:32:06;19.97;;;8.07;;
40453;SDS011;26160;51.858;4.398;2022-11-04T08:34:34;13.40;;;7.10;;
40453;SDS011;26160;51.858;4.398;2022-11-04T08:37:00;18.20;;;8.03;;
40453;SDS011;26160;51.858;4.398;2022-11-04T08:39:26;19.90;;;9.87;;
40453;SDS011;26160;51.858;4.398;2022-11-04T08:41:52;24.20;;;9.47;;
40453;SDS011;26160;51.858;4.398;2022-11-04T08:44:19;22.50;;;10.47;;
40453;SDS011;26160;51.858;4.398;2022-11-04T08:46:45;29.30;;;11.87;;
40453;SDS011;26160;51.858;4.398;2022-11-04T08:49:12;20.90;;;9.83;;
40453;SDS011;26160;51.858;4.398;2022-11-04T08:51:40;19.45;;;10.40;;
40453;SDS011;26160;51.858;4.398;2022-11-04T08:54:08;22.42;;;10.18;;
40453;SDS011;26160;51.858;4.398;2022-11-04T08:56:36;22.27;;;10.30;;
40453;SDS011;26160;51.858;4.398;2022-11-04T08:59:07;19.60;;;9.20;;
40453;SDS011;26160;51.858;4.398;2022-11-04T09:01:35;19.10;;;9.27;;
40453;SDS011;26160;51.858;4.398;2022-11-04T09:04:04;19.70;;;7.78;;
40453;SDS011;26160;51.858;4.398;2022-11-04T09:06:32;18.95;;;8.15;;
40453;SDS011;26160;51.858;4.398;2022-11-04T09:09:02;15.95;;;8.52;;
40453;SDS011;26160;51.858;4.398;2022-11-04T09:11:31;21.25;;;8.18;;
40453;SDS011;26160;51.858;4.398;2022-11-04T09:13:59;18.15;;;7.40;;
40453;SDS011;26160;51.858;4.398;2022-11-04T09:16:29;22.77;;;8.40;;
40453;SDS011;26160;51.858;4.398;2022-11-04T09:18:58;18.02;;;6.97;;
40453;SDS011;26160;51.858;4.398;2022-11-04T09:21:25;15.95;;;8.20;;
40453;SDS011;26160;51.858;4.398;2022-11-04T09:23:52;13.05;;;7.72;;
40453;SDS011;26160;51.858;4.398;2022-11-04T09:26:18;13.57;;;7.07;;
40453;SDS011;26160;51.858;4.398;2022-11-04T09:28:45;20.65;;;9.02;;
40453;SDS011;26160;51.858;4.398;2022-11-04T09:31:15;16.38;;;7.25;;
40453;SDS011;26160;51.858;4.398;2022-11-04T09:33:43;18.30;;;7.50;;
40453;SDS011;26160;51.858;4.398;2022-11-04T09:36:10;15.95;;;7.28;;
40453;SDS011;26160;51.858;4.398;2022-11-04T09:38:37;15.68;;;6.38;;
40453;SDS011;26160;51.858;4.398;2022-11-04T09:46:43;14.55;;;5.70;;
40453;SDS011;26160;51.858;4.398;2022-11-04T09:49:12;15.02;;;5.60;;
40453;SDS011;26160;51.858;4.398;2022-11-04T09:51:41;14.27;;;5.63;;
40453;SDS011;26160;51.858;4.398;2022-11-04T09:54:53;14.82;;;5.32;;
40453;SDS011;26160;51.858;4.398;2022-11-04T09:57:04;12.25;;;4.75;;
40453;SDS011;26160;51.858;4.398;2022-11-04T09:59:47;14.30;;;5.10;;
40453;SDS011;26160;51.858;4.398;2022-11-04T10:02:39;12.32;;;4.18;;
40453;SDS011;26160;51.858;4.398;2022-11-04T10:13:28;8.05;;;3.88;;
40453;SDS011;26160;51.858;4.398;2022-11-04T10:16:11;10.18;;;3.95;;
40453;SDS011;26160;51.858;4.398;2022-11-04T10:22:14;7.68;;;3.38;;
40453;SDS011;26160;51.858;4.398;2022-11-04T10:27:35;12.73;;;4.32;;
40453;SDS011;26160;51.858;4.398;2022-11-04T10:30:22;10.75;;;4.40;;
40453;SDS011;26160;51.858;4.398;2022-11-04T10:35:28;10.40;;;3.55;;
40453;SDS011;26160;51.858;4.398;2022-11-04T10:38:17;9.50;;;3.50;;
40453;SDS011;26160;51.858;4.398;2022-11-04T10:40:50;12.77;;;3.97;;
40453;SDS011;26160;51.858;4.398;2022-11-04T10:43:30;7.73;;;2.93;;
40453;SDS011;26160;51.858;4.398;2022-11-04T10:46:19;8.35;;;3.10;;
40453;SDS011;26160;51.858;4.398;2022-11-04T10:49:17;8.00;;;3.05;;
40453;SDS011;26160;51.858;4.398;2022-11-04T10:52:06;9.73;;;3.58;;
40453;SDS011;26160;51.858;4.398;2022-11-04T10:54:45;8.70;;;3.05;;
40453;SDS011;26160;51.858;4.398;2022-11-04T10:57:15;9.38;;;3.38;;
40453;SDS011;26160;51.858;4.398;2022-11-04T11:05:11;9.00;;;3.00;;
40453;SDS011;26160;51.858;4.398;2022-11-04T11:10:27;12.05;;;3.05;;
40453;SDS011;26160;51.858;4.398;2022-11-04T11:12:56;6.55;;;2.78;;
40453;SDS011;26160;51.858;4.398;2022-11-04T11:15:30;6.28;;;2.25;;
40453;SDS011;26160;51.858;4.398;2022-11-04T11:18:20;10.57;;;2.83;;
40453;SDS011;26160;51.858;4.398;2022-11-04T11:23:40;5.05;;;2.20;;
40453;SDS011;26160;51.858;4.398;2022-11-04T11:26:21;10.10;;;3.33;;
40453;SDS011;26160;51.858;4.398;2022-11-04T11:28:55;8.30;;;1.90;;
40453;SDS011;26160;51.858;4.398;2022-11-04T11:31:36;5.37;;;2.17;;
40453;SDS011;26160;51.858;4.398;2022-11-04T11:34:13;6.40;;;2.22;;
40453;SDS011;26160;51.858;4.398;2022-11-04T11:36:43;6.18;;;2.30;;
40453;SDS011;26160;51.858;4.398;2022-11-04T11:39:13;5.68;;;1.90;;
40453;SDS011;26160;51.858;4.398;2022-11-04T11:41:51;7.22;;;1.95;;
40453;SDS011;26160;51.858;4.398;2022-11-04T11:44:31;5.60;;;1.60;;
40453;SDS011;26160;51.858;4.398;2022-11-04T11:50:19;8.93;;;2.15;;
40453;SDS011;26160;51.858;4.398;2022-11-04T11:52:49;6.93;;;2.00;;
40453;SDS011;26160;51.858;4.398;2022-11-04T11:55:21;6.18;;;1.70;;
40453;SDS011;26160;51.858;4.398;2022-11-04T11:58:18;4.50;;;1.73;;
40453;SDS011;26160;51.858;4.398;2022-11-04T12:01:08;6.38;;;1.70;;
40453;SDS011;26160;51.858;4.398;2022-11-04T12:04:02;6.00;;;2.00;;
40453;SDS011;26160;51.858;4.398;2022-11-04T12:14:47;4.63;;;1.27;;
40453;SDS011;26160;51.858;4.398;2022-11-04T12:25:45;4.82;;;2.05;;
40453;SDS011;26160;51.858;4.398;2022-11-04T12:33:54;5.13;;;1.08;;
40453;SDS011;26160;51.858;4.398;2022-11-04T12:39:47;4.80;;;1.00;;
40453;SDS011;26160;51.858;4.398;2022-11-04T12:47:42;4.82;;;1.00;;
40453;SDS011;26160;51.858;4.398;2022-11-04T12:56:18;3.88;;;1.00;;
40453;SDS011;26160;51.858;4.398;2022-11-04T12:59:03;3.15;;;1.10;;
40453;SDS011;26160;51.858;4.398;2022-11-04T13:02:41;3.00;;;0.68;;
40453;SDS011;26160;51.858;4.398;2022-11-04T13:07:45;6.22;;;1.10;;
40453;SDS011;26160;51.858;4.398;2022-11-04T13:10:22;3.58;;;1.33;;
40453;SDS011;26160;51.858;4.398;2022-11-04T13:12:55;6.60;;;1.13;;
40453;SDS011;26160;51.858;4.398;2022-11-04T13:15:36;7.25;;;1.17;;
40453;SDS011;26160;51.858;4.398;2022-11-04T13:18:12;3.78;;;1.10;;
40453;SDS011;26160;51.858;4.398;2022-11-04T13:20:46;5.15;;;1.00;;
40453;SDS011;26160;51.858;4.398;2022-11-04T13:23:40;5.07;;;1.02;;
40453;SDS011;26160;51.858;4.398;2022-11-04T13:26:29;5.88;;;1.25;;
40453;SDS011;26160;51.858;4.398;2022-11-04T13:28:58;4.55;;;1.08;;
40453;SDS011;26160;51.858;4.398;2022-11-04T13:31:36;4.38;;;0.90;;
40453;SDS011;26160;51.858;4.398;2022-11-04T13:39:39;3.05;;;0.70;;
40453;SDS011;26160;51.858;4.398;2022-11-04T13:45:12;4.60;;;1.00;;
40453;SDS011;26160;51.858;4.398;2022-11-04T13:47:43;3.50;;;1.00;;
40453;SDS011;26160;51.858;4.398;2022-11-04T13:50:26;6.47;;;1.00;;
40453;SDS011;26160;51.858;4.398;2022-11-04T13:53:04;4.97;;;1.10;;
40453;SDS011;26160;51.858;4.398;2022-11-04T13:55:33;4.40;;;1.30;;
40453;SDS011;26160;51.858;4.398;2022-11-04T13:58:01;6.77;;;1.60;;
40453;SDS011;26160;51.858;4.398;2022-11-04T14:00:32;3.83;;;1.10;;
40453;SDS011;26160;51.858;4.398;2022-11-04T14:02:59;5.33;;;1.43;;
40453;SDS011;26160;51.858;4.398;2022-11-04T14:05:46;4.77;;;1.60;;
40453;SDS011;26160;51.858;4.398;2022-11-04T14:08:26;8.17;;;1.77;;
40453;SDS011;26160;51.858;4.398;2022-11-04T14:18:37;4.38;;;0.98;;
40453;SDS011;26160;51.858;4.398;2022-11-04T14:21:08;5.55;;;1.15;;
40453;SDS011;26160;51.858;4.398;2022-11-04T14:23:37;4.07;;;0.85;;
40453;SDS011;26160;51.858;4.398;2022-11-04T14:26:11;5.65;;;1.40;;
40453;SDS011;26160;51.858;4.398;2022-11-04T14:28:41;7.10;;;1.23;;
40453;SDS011;26160;51.858;4.398;2022-11-04T14:31:14;6.43;;;2.20;;
40453;SDS011;26160;51.858;4.398;2022-11-04T14:34:03;7.32;;;2.15;;
40453;SDS011;26160;51.858;4.398;2022-11-04T14:36:37;5.65;;;2.00;;
40453;SDS011;26160;51.858;4.398;2022-11-04T14:44:29;6.85;;;2.28;;
40453;SDS011;26160;51.858;4.398;2022-11-04T14:47:25;4.28;;;1.50;;
40453;SDS011;26160;51.858;4.398;2022-11-04T14:52:30;5.25;;;1.80;;
40453;SDS011;26160;51.858;4.398;2022-11-04T14:57:35;5.38;;;1.42;;
40453;SDS011;26160;51.858;4.398;2022-11-04T15:02:46;8.32;;;2.03;;
40453;SDS011;26160;51.858;4.398;2022-11-04T15:05:21;2.92;;;1.38;;
40453;SDS011;26160;51.858;4.398;2022-11-04T15:07:50;4.28;;;1.42;;
40453;SDS011;26160;51.858;4.398;2022-11-04T15:10:26;3.72;;;1.10;;
40453;SDS011;26160;51.858;4.398;2022-11-04T15:12:57;4.13;;;0.90;;
40453;SDS011;26160;51.858;4.398;2022-11-04T15:18:05;4.00;;;1.42;;
40453;SDS011;26160;51.858;4.398;2022-11-04T15:20:47;5.30;;;2.08;;
40453;SDS011;26160;51.858;4.398;2022-11-04T15:23:23;5.30;;;1.90;;
40453;SDS011;26160;51.858;4.398;2022-11-04T15:28:27;3.60;;;2.05;;
40453;SDS011;26160;51.858;4.398;2022-11-04T15:33:45;5.85;;;2.20;;
40453;SDS011;26160;51.858;4.398;2022-11-04T15:36:19;5.38;;;2.08;;
40453;SDS011;26160;51.858;4.398;2022-11-04T15:39:01;10.57;;;2.35;;
40453;SDS011;26160;51.858;4.398;2022-11-04T15:41:32;7.70;;;2.67;;
40453;SDS011;26160;51.858;4.398;2022-11-04T15:44:24;5.30;;;1.90;;
40453;SDS011;26160;51.858;4.398;2022-11-04T15:46:56;8.43;;;2.47;;
40453;SDS011;26160;51.858;4.398;2022-11-04T15:49:25;6.32;;;2.25;;
40453;SDS011;26160;51.858;4.398;2022-11-04T15:52:00;7.18;;;2.47;;
40453;SDS011;26160;51.858;4.398;2022-11-04T15:54:34;9.15;;;2.33;;
40453;SDS011;26160;51.858;4.398;2022-11-04T15:57:04;9.80;;;2.37;;
40453;SDS011;26160;51.858;4.398;2022-11-04T15:59:53;6.27;;;2.50;;
40453;SDS011;26160;51.858;4.398;2022-11-04T16:02:29;5.13;;;2.77;;
40453;SDS011;26160;51.858;4.398;2022-11-04T16:05:02;9.93;;;2.47;;
40453;SDS011;26160;51.858;4.398;2022-11-04T16:07:38;7.33;;;2.10;;
40453;SDS011;26160;51.858;4.398;2022-11-04T16:12:56;7.67;;;2.50;;
40453;SDS011;26160;51.858;4.398;2022-11-04T16:15:48;9.30;;;2.70;;
40453;SDS011;26160;51.858;4.398;2022-11-04T16:21:04;7.13;;;2.80;;
40453;SDS011;26160;51.858;4.398;2022-11-04T16:23:46;10.93;;;2.70;;
40453;SDS011;26160;51.858;4.398;2022-11-04T16:26:14;9.17;;;3.17;;
40453;SDS011;26160;51.858;4.398;2022-11-04T16:28:40;11.57;;;3.43;;
40453;SDS011;26160;51.858;4.398;2022-11-04T16:34:02;4.27;;;2.63;;
40453;SDS011;26160;51.858;4.398;2022-11-04T16:36:30;8.90;;;3.33;;
40453;SDS011;26160;51.858;4.398;2022-11-04T16:39:00;7.37;;;3.17;;
40453;SDS011;26160;51.858;4.398;2022-11-04T16:41:38;9.37;;;3.20;;
40453;SDS011;26160;51.858;4.398;2022-11-04T16:44:08;9.97;;;3.87;;
40453;SDS011;26160;51.858;4.398;2022-11-04T16:46:43;9.00;;;4.33;;
40453;SDS011;26160;51.858;4.398;2022-11-04T16:49:13;15.83;;;7.10;;
40453;SDS011;26160;51.858;4.398;2022-11-04T16:51:42;13.90;;;6.90;;
40453;SDS011;26160;51.858;4.398;2022-11-04T16:54:08;10.00;;;5.43;;
40453;SDS011;26160;51.858;4.398;2022-11-04T16:56:36;12.40;;;6.00;;
40453;SDS011;26160;51.858;4.398;2022-11-04T16:59:03;7.67;;;4.50;;
40453;SDS011;26160;51.858;4.398;2022-11-04T17:04:12;6.30;;;3.80;;
40453;SDS011;26160;51.858;4.398;2022-11-04T17:06:38;11.03;;;4.30;;
40453;SDS011;26160;51.858;4.398;2022-11-04T17:09:20;11.23;;;3.97;;
40453;SDS011;26160;51.858;4.398;2022-11-04T17:11:51;16.30;;;5.97;;
40453;SDS011;26160;51.858;4.398;2022-11-04T17:14:27;17.87;;;10.13;;
40453;SDS011;26160;51.858;4.398;2022-11-04T17:17:02;19.77;;;9.83;;
40453;SDS011;26160;51.858;4.398;2022-11-04T17:19:30;24.80;;;12.27;;
40453;SDS011;26160;51.858;4.398;2022-11-04T17:21:57;22.77;;;11.53;;
40453;SDS011;26160;51.858;4.398;2022-11-04T17:24:27;25.40;;;11.43;;
40453;SDS011;26160;51.858;4.398;2022-11-04T17:27:02;24.30;;;10.40;;
40453;SDS011;26160;51.858;4.398;2022-11-04T17:29:28;11.90;;;5.43;;
40453;SDS011;26160;51.858;4.398;2022-11-04T17:31:54;12.90;;;7.57;;
40453;SDS011;26160;51.858;4.398;2022-11-04T17:34:20;12.50;;;6.13;;
40453;SDS011;26160;51.858;4.398;2022-11-04T17:37:01;13.13;;;5.97;;
40453;SDS011;26160;51.858;4.398;2022-11-04T17:39:27;10.93;;;5.63;;
40453;SDS011;26160;51.858;4.398;2022-11-04T17:41:53;13.27;;;6.57;;
40453;SDS011;26160;51.858;4.398;2022-11-04T17:44:37;12.20;;;6.43;;
40453;SDS011;26160;51.858;4.398;2022-11-04T17:47:03;17.63;;;7.00;;
40453;SDS011;26160;51.858;4.398;2022-11-04T17:49:29;19.60;;;5.77;;
40453;SDS011;26160;51.858;4.398;2022-11-04T17:51:59;11.40;;;2.90;;
40453;SDS011;26160;51.858;4.398;2022-11-04T17:54:26;12.63;;;3.17;;
40453;SDS011;26160;51.858;4.398;2022-11-04T17:56:55;13.07;;;3.23;;
40453;SDS011;26160;51.858;4.398;2022-11-04T17:59:22;12.33;;;4.00;;
40453;SDS011;26160;51.858;4.398;2022-11-04T18:01:49;8.80;;;3.57;;
40453;SDS011;26160;51.858;4.398;2022-11-04T18:04:16;12.83;;;3.90;;
40453;SDS011;26160;51.858;4.398;2022-11-04T18:06:44;10.63;;;4.40;;
40453;SDS011;26160;51.858;4.398;2022-11-04T18:09:10;12.87;;;3.77;;
40453;SDS011;26160;51.858;4.398;2022-11-04T18:11:37;8.40;;;4.10;;